Dades meteomassalio
Diari Summary for Gener 24, 2018 Units:  Both    English   Metric
« Previous Day
Next Day »
Diari Semanal Mensual Anual Personalitzat
  Maxima: Minima: Mijana:
Temperatura: TemperatureC °F /  -17.8 °C 0.6 °F /  -17.4 °C 6.4 °F /  -14.2 °C
Rosada: DewpointC °F /  -17.8 °C -0.6 °F /  -18.1 °C 3.7 °F /  -15.7 °C
Humitat: Humidity % 63 % 83 %
Velocitat del vent: WindSpeedKMH mph /  0 km/h - 0.6 mph /  1 km/h
Racha vent: WindSpeedGustKMH mph /  0 km/h - -
Vent:- - East
Pressio: PressurehPa in /  0 hPa 1027.0 in /  34774.2 hPa -
Pluja: 0.3 in /  7.62 mm    
Historical Graphs
 
 
Tabular Data for Gener 24, 2018
Time Temperature Dew Point Pressure Wind Wind Speed Wind Gust Humidity Rainfall Rate (Hourly) solar Conditions
TemperatureC °F /  -17.8 °C DewpointC °F /  -17.8 °C PressurehPa in /  0 hPa Calm     Humidity % HourlyPrecipMM in /  0 mm SolarRadiationWatts/m^2 W/m2 Conditions
00:02 4.4 °F /  -15.3 °C 2.9 °F /  -16.2 °C 1031.7 in /  34933.4 hPa Calm     90 % 0.0 in /  0 mm 0.0 W/m2 CLR
00:07 4.4 °F /  -15.3 °C 2.9 °F /  -16.2 °C 1031.7 in /  34933.4 hPa Calm     90 % 0.0 in /  0 mm 0.0 W/m2 CLR
00:12 4.4 °F /  -15.3 °C 2.9 °F /  -16.2 °C 1031.7 in /  34933.4 hPa Calm     90 % 0.0 in /  0 mm 0.0 W/m2 CLR
00:17 4.4 °F /  -15.3 °C 2.9 °F /  -16.2 °C 1031.7 in /  34933.4 hPa Calm     90 % 0.0 in /  0 mm 0.0 W/m2 CLR
00:22 4.4 °F /  -15.3 °C 2.9 °F /  -16.2 °C 1031.7 in /  34933.4 hPa Calm     90 % 0.0 in /  0 mm 0.0 W/m2 CLR
00:27 4.4 °F /  -15.3 °C 2.9 °F /  -16.2 °C 1031.7 in /  34933.4 hPa Calm     90 % 0.0 in /  0 mm 0.0 W/m2 CLR
00:32 4.4 °F /  -15.3 °C 2.9 °F /  -16.2 °C 1031.7 in /  34933.4 hPa Calm     90 % 0.0 in /  0 mm 0.0 W/m2 CLR
00:37 4.4 °F /  -15.3 °C 2.9 °F /  -16.2 °C 1031.7 in /  34933.4 hPa Calm     90 % 0.0 in /  0 mm 0.0 W/m2 CLR
00:43 4.4 °F /  -15.3 °C 2.9 °F /  -16.2 °C 1031.7 in /  34933.4 hPa Calm     90 % 0.0 in /  0 mm 0.0 W/m2 CLR
00:48 4.4 °F /  -15.3 °C 2.9 °F /  -16.2 °C 1031.7 in /  34933.4 hPa Calm     90 % 0.0 in /  0 mm 0.0 W/m2 CLR
00:53 4.4 °F /  -15.3 °C 2.9 °F /  -16.2 °C 1031.7 in /  34933.4 hPa Calm     90 % 0.0 in /  0 mm 0.0 W/m2 CLR
00:58 4.4 °F /  -15.3 °C 2.9 °F /  -16.2 °C 1031.7 in /  34933.4 hPa Calm     90 % 0.0 in /  0 mm 0.0 W/m2 CLR
01:03 4.4 °F /  -15.3 °C 3.1 °F /  -16.1 °C 1031.7 in /  34933.4 hPa Calm     91 % 0.0 in /  0 mm 0.0 W/m2 CLR
01:08 3.9 °F /  -15.6 °C 2.6 °F /  -16.3 °C 1031.4 in /  34923.2 hPa Calm     91 % 0.0 in /  0 mm 0.0 W/m2 CLR
01:13 3.9 °F /  -15.6 °C 2.4 °F /  -16.4 °C 1031.4 in /  34923.2 hPa Calm     90 % 0.0 in /  0 mm 0.0 W/m2 CLR
01:23 3.9 °F /  -15.6 °C 2.6 °F /  -16.3 °C 1031.4 in /  34923.2 hPa Calm     91 % 0.0 in /  0 mm 0.0 W/m2 CLR
01:28 3.9 °F /  -15.6 °C 2.4 °F /  -16.4 °C 1031.4 in /  34923.2 hPa Calm     90 % 0.0 in /  0 mm 0.0 W/m2 CLR
01:33 3.3 °F /  -15.9 °C 1.8 °F /  -16.8 °C 1031.4 in /  34923.2 hPa Calm     90 % 0.0 in /  0 mm 0.0 W/m2 CLR
01:38 3.9 °F /  -15.6 °C 2.4 °F /  -16.4 °C 1031.4 in /  34923.2 hPa Calm     90 % 0.0 in /  0 mm 0.0 W/m2 CLR
01:43 3.9 °F /  -15.6 °C 2.6 °F /  -16.3 °C 1031.4 in /  34923.2 hPa Calm     91 % 0.0 in /  0 mm 0.0 W/m2 CLR
01:53 3.3 °F /  -15.9 °C 2.0 °F /  -16.7 °C 1031.4 in /  34923.2 hPa Calm     91 % 0.0 in /  0 mm 0.0 W/m2 CLR
01:58 3.3 °F /  -15.9 °C 2.0 °F /  -16.7 °C 1031.4 in /  34923.2 hPa Calm     91 % 0.0 in /  0 mm 0.0 W/m2 CLR
02:03 3.3 °F /  -15.9 °C 2.0 °F /  -16.7 °C 1031.4 in /  34923.2 hPa Calm     91 % 0.0 in /  0 mm 0.0 W/m2 CLR
02:08 3.9 °F /  -15.6 °C 2.6 °F /  -16.3 °C 1031.4 in /  34923.2 hPa Calm     91 % 0.0 in /  0 mm 0.0 W/m2 CLR
02:13 3.9 °F /  -15.6 °C 2.6 °F /  -16.3 °C 1031.4 in /  34923.2 hPa Calm     91 % 0.0 in /  0 mm 0.0 W/m2 CLR
02:18 3.9 °F /  -15.6 °C 2.6 °F /  -16.3 °C 1031.4 in /  34923.2 hPa Calm     91 % 0.0 in /  0 mm 0.0 W/m2 CLR
02:23 3.9 °F /  -15.6 °C 2.6 °F /  -16.3 °C 1031.4 in /  34923.2 hPa Calm     91 % 0.0 in /  0 mm 0.0 W/m2 CLR
02:28 3.9 °F /  -15.6 °C 2.6 °F /  -16.3 °C 1031.4 in /  34923.2 hPa Calm     91 % 0.0 in /  0 mm 0.0 W/m2 CLR
02:33 3.3 °F /  -15.9 °C 2.0 °F /  -16.7 °C 1031.4 in /  34923.2 hPa Calm     91 % 0.0 in /  0 mm 0.0 W/m2 CLR
02:38 3.9 °F /  -15.6 °C 2.6 °F /  -16.3 °C 1031.4 in /  34923.2 hPa Calm     91 % 0.0 in /  0 mm 0.0 W/m2 CLR
02:43 3.3 °F /  -15.9 °C 2.0 °F /  -16.7 °C 1031.4 in /  34923.2 hPa Calm     91 % 0.0 in /  0 mm 0.0 W/m2 CLR
02:48 3.3 °F /  -15.9 °C 2.0 °F /  -16.7 °C 1031.4 in /  34923.2 hPa Calm     91 % 0.0 in /  0 mm 0.0 W/m2 CLR
02:53 3.3 °F /  -15.9 °C 2.0 °F /  -16.7 °C 1031.0 in /  34909.7 hPa Calm     91 % 0.0 in /  0 mm 0.0 W/m2 CLR
03:03 2.8 °F /  -16.2 °C 1.4 °F /  -17 °C 1031.0 in /  34909.7 hPa Calm     91 % 0.0 in /  0 mm 0.0 W/m2 CLR
03:08 2.8 °F /  -16.2 °C 1.4 °F /  -17 °C 1031.0 in /  34909.7 hPa Calm     91 % 0.0 in /  0 mm 0.0 W/m2 CLR
03:13 2.8 °F /  -16.2 °C 1.4 °F /  -17 °C 1031.0 in /  34909.7 hPa Calm     91 % 0.0 in /  0 mm 0.0 W/m2 CLR
03:18 2.8 °F /  -16.2 °C 1.4 °F /  -17 °C 1031.0 in /  34909.7 hPa Calm     91 % 0.0 in /  0 mm 0.0 W/m2 CLR
03:23 2.8 °F /  -16.2 °C 1.4 °F /  -17 °C 1031.0 in /  34909.7 hPa Calm     91 % 0.0 in /  0 mm 0.0 W/m2 CLR
03:28 2.8 °F /  -16.2 °C 1.4 °F /  -17 °C 1031.0 in /  34909.7 hPa Calm     91 % 0.0 in /  0 mm 0.0 W/m2 CLR
03:33 2.8 °F /  -16.2 °C 1.4 °F /  -17 °C 1031.0 in /  34909.7 hPa Calm     91 % 0.0 in /  0 mm 0.0 W/m2 CLR
03:38 2.8 °F /  -16.2 °C 1.4 °F /  -17 °C 1031.0 in /  34909.7 hPa Calm     91 % 0.0 in /  0 mm 0.0 W/m2 CLR
03:48 2.8 °F /  -16.2 °C 1.4 °F /  -17 °C 1031.0 in /  34909.7 hPa Calm     91 % 0.0 in /  0 mm 0.0 W/m2 CLR
03:53 2.8 °F /  -16.2 °C 1.4 °F /  -17 °C 1031.0 in /  34909.7 hPa Calm     91 % 0.0 in /  0 mm 0.0 W/m2 CLR
03:58 2.8 °F /  -16.2 °C 1.4 °F /  -17 °C 1031.0 in /  34909.7 hPa Calm     91 % 0.0 in /  0 mm 0.0 W/m2 CLR
04:03 2.8 °F /  -16.2 °C 1.4 °F /  -17 °C 1031.0 in /  34909.7 hPa Calm     91 % 0.0 in /  0 mm 0.0 W/m2 CLR
04:08 2.2 °F /  -16.6 °C 0.9 °F /  -17.3 °C 1031.0 in /  34909.7 hPa Calm     91 % 0.0 in /  0 mm 0.0 W/m2 CLR
04:10 2.2 °F /  -16.6 °C 0.9 °F /  -17.3 °C 1031.0 in /  34909.7 hPa Calm     91 % 0.0 in /  0 mm 0.0 W/m2 CLR
04:15 2.2 °F /  -16.6 °C 1.1 °F /  -17.2 °C 1031.0 in /  34909.7 hPa Calm     92 % 0.0 in /  0 mm 0.0 W/m2 CLR
04:25 2.2 °F /  -16.6 °C 1.1 °F /  -17.2 °C 1031.0 in /  34909.7 hPa Calm     92 % 0.0 in /  0 mm 0.0 W/m2 CLR
04:30 2.2 °F /  -16.6 °C 1.1 °F /  -17.2 °C 1031.0 in /  34909.7 hPa Calm     92 % 0.0 in /  0 mm 0.0 W/m2 CLR
04:40 2.2 °F /  -16.6 °C 1.1 °F /  -17.2 °C 1030.7 in /  34899.5 hPa Calm     92 % 0.0 in /  0 mm 0.0 W/m2 CLR
04:45 2.2 °F /  -16.6 °C 1.1 °F /  -17.2 °C 1030.7 in /  34899.5 hPa Calm     92 % 0.0 in /  0 mm 0.0 W/m2 CLR
05:05 2.2 °F /  -16.6 °C 1.1 °F /  -17.2 °C 1030.7 in /  34899.5 hPa Calm     92 % 0.0 in /  0 mm 0.0 W/m2 CLR
05:10 2.2 °F /  -16.6 °C 1.1 °F /  -17.2 °C 1030.7 in /  34899.5 hPa Calm     92 % 0.0 in /  0 mm 0.0 W/m2 CLR
05:15 2.2 °F /  -16.6 °C 1.1 °F /  -17.2 °C 1030.7 in /  34899.5 hPa Calm     92 % 0.0 in /  0 mm 0.0 W/m2 CLR
05:20 2.2 °F /  -16.6 °C 1.1 °F /  -17.2 °C 1030.7 in /  34899.5 hPa Calm     92 % 0.0 in /  0 mm 0.0 W/m2 CLR
05:25 2.2 °F /  -16.6 °C 0.9 °F /  -17.3 °C 1030.7 in /  34899.5 hPa Calm     91 % 0.0 in /  0 mm 0.0 W/m2 CLR
05:30 2.2 °F /  -16.6 °C 1.1 °F /  -17.2 °C 1030.7 in /  34899.5 hPa Calm     92 % 0.0 in /  0 mm 0.0 W/m2 CLR
05:40 1.7 °F /  -16.8 °C 0.5 °F /  -17.5 °C 1030.7 in /  34899.5 hPa Calm     92 % 0.0 in /  0 mm 0.0 W/m2 CLR
05:50 1.7 °F /  -16.8 °C 0.5 °F /  -17.5 °C 1030.7 in /  34899.5 hPa Calm     92 % 0.0 in /  0 mm 0.0 W/m2 CLR
05:55 1.7 °F /  -16.8 °C 0.5 °F /  -17.5 °C 1030.7 in /  34899.5 hPa Calm     92 % 0.0 in /  0 mm 0.0 W/m2 CLR
06:00 1.7 °F /  -16.8 °C 0.5 °F /  -17.5 °C 1030.7 in /  34899.5 hPa Calm     92 % 0.0 in /  0 mm 0.0 W/m2 CLR
06:05 1.7 °F /  -16.8 °C 0.5 °F /  -17.5 °C 1030.7 in /  34899.5 hPa Calm     92 % 0.0 in /  0 mm 0.0 W/m2 CLR
06:10 1.7 °F /  -16.8 °C 0.5 °F /  -17.5 °C 1030.7 in /  34899.5 hPa Calm     92 % 0.0 in /  0 mm 0.0 W/m2 CLR
06:15 1.7 °F /  -16.8 °C 0.5 °F /  -17.5 °C 1030.7 in /  34899.5 hPa Calm     92 % 0.0 in /  0 mm 0.0 W/m2 CLR
06:20 1.7 °F /  -16.8 °C 0.5 °F /  -17.5 °C 1030.7 in /  34899.5 hPa Calm     92 % 0.0 in /  0 mm 0.0 W/m2 CLR
06:25 1.7 °F /  -16.8 °C 0.5 °F /  -17.5 °C 1031.0 in /  34909.7 hPa Calm     92 % 0.0 in /  0 mm 0.0 W/m2 CLR
06:30 1.1 °F /  -17.2 °C -0.1 °F /  -17.8 °C 1031.0 in /  34909.7 hPa Calm     92 % 0.0 in /  0 mm 0.0 W/m2 CLR
06:35 1.7 °F /  -16.8 °C 0.5 °F /  -17.5 °C 1031.0 in /  34909.7 hPa Calm     92 % 0.0 in /  0 mm 0.0 W/m2 CLR
06:40 1.7 °F /  -16.8 °C 0.5 °F /  -17.5 °C 1031.0 in /  34909.7 hPa Calm     92 % 0.0 in /  0 mm 0.0 W/m2 CLR
06:45 1.7 °F /  -16.8 °C 0.5 °F /  -17.5 °C 1031.0 in /  34909.7 hPa Calm     92 % 0.0 in /  0 mm 0.0 W/m2 CLR
06:50 1.7 °F /  -16.8 °C 0.5 °F /  -17.5 °C 1031.0 in /  34909.7 hPa Calm     92 % 0.0 in /  0 mm 0.0 W/m2 CLR
06:55 1.7 °F /  -16.8 °C 0.5 °F /  -17.5 °C 1031.0 in /  34909.7 hPa Calm     92 % 0.0 in /  0 mm 0.0 W/m2 CLR
07:00 1.7 °F /  -16.8 °C 0.5 °F /  -17.5 °C 1031.0 in /  34909.7 hPa Calm     92 % 0.0 in /  0 mm 0.0 W/m2 CLR
07:05 1.1 °F /  -17.2 °C -0.1 °F /  -17.8 °C 1031.0 in /  34909.7 hPa Calm     92 % 0.0 in /  0 mm 0.0 W/m2 CLR
07:10 1.1 °F /  -17.2 °C -0.1 °F /  -17.8 °C 1031.0 in /  34909.7 hPa Calm     92 % 0.0 in /  0 mm 0.0 W/m2 CLR
07:15 1.1 °F /  -17.2 °C -0.1 °F /  -17.8 °C 1031.0 in /  34909.7 hPa Calm     92 % 0.0 in /  0 mm 0.0 W/m2 CLR
07:20 1.1 °F /  -17.2 °C -0.1 °F /  -17.8 °C 1031.0 in /  34909.7 hPa Calm     92 % 0.0 in /  0 mm 0.0 W/m2 CLR
07:30 1.1 °F /  -17.2 °C -0.1 °F /  -17.8 °C 1031.0 in /  34909.7 hPa Calm     92 % 0.0 in /  0 mm 0.0 W/m2 CLR
07:35 1.1 °F /  -17.2 °C -0.1 °F /  -17.8 °C 1030.7 in /  34899.5 hPa Calm     92 % 0.0 in /  0 mm 0.0 W/m2 CLR
07:40 1.1 °F /  -17.2 °C -0.1 °F /  -17.8 °C 1030.7 in /  34899.5 hPa Calm     92 % 0.0 in /  0 mm 0.0 W/m2 CLR
07:45 1.1 °F /  -17.2 °C -0.1 °F /  -17.8 °C 1030.7 in /  34899.5 hPa Calm     92 % 0.0 in /  0 mm 0.0 W/m2 CLR
07:50 1.1 °F /  -17.2 °C -0.1 °F /  -17.8 °C 1030.7 in /  34899.5 hPa Calm     92 % 0.0 in /  0 mm 0.0 W/m2 CLR
07:55 1.1 °F /  -17.2 °C -0.1 °F /  -17.8 °C 1030.7 in /  34899.5 hPa Calm     92 % 0.0 in /  0 mm 0.0 W/m2 CLR
08:00 0.6 °F /  -17.4 °C -0.6 °F /  -18.1 °C 1030.7 in /  34899.5 hPa Calm     92 % 0.0 in /  0 mm 0.0 W/m2 CLR
08:05 1.1 °F /  -17.2 °C -0.1 °F /  -17.8 °C 1030.7 in /  34899.5 hPa Calm     92 % 0.0 in /  0 mm 0.0 W/m2 CLR
08:10 1.1 °F /  -17.2 °C -0.1 °F /  -17.8 °C 1030.7 in /  34899.5 hPa Calm     92 % 0.0 in /  0 mm 0.0 W/m2 OVC
08:15 1.1 °F /  -17.2 °C -0.1 °F /  -17.8 °C 1031.0 in /  34909.7 hPa Calm     92 % 0.0 in /  0 mm 0.0 W/m2 OVC
08:25 1.1 °F /  -17.2 °C -0.1 °F /  -17.8 °C 1031.0 in /  34909.7 hPa Calm     92 % 0.0 in /  0 mm 7.0 W/m2 BKN
08:30 1.1 °F /  -17.2 °C -0.1 °F /  -17.8 °C 1031.0 in /  34909.7 hPa Calm     92 % 0.0 in /  0 mm 11.0 W/m2 BKN
08:35 1.1 °F /  -17.2 °C -0.1 °F /  -17.8 °C 1031.0 in /  34909.7 hPa Calm     92 % 0.0 in /  0 mm 12.0 W/m2 BKN
08:40 1.1 °F /  -17.2 °C 0.1 °F /  -17.7 °C 1031.0 in /  34909.7 hPa Calm     93 % 0.0 in /  0 mm 16.0 W/m2 BKN
08:45 1.1 °F /  -17.2 °C 0.1 °F /  -17.7 °C 1031.0 in /  34909.7 hPa Calm     93 % 0.0 in /  0 mm 21.0 W/m2 BKN
08:55 1.1 °F /  -17.2 °C 0.1 °F /  -17.7 °C 1031.0 in /  34909.7 hPa Calm     93 % 0.0 in /  0 mm 42.0 W/m2 BKN
09:00 1.1 °F /  -17.2 °C 0.1 °F /  -17.7 °C 1031.0 in /  34909.7 hPa Calm     93 % 0.0 in /  0 mm 46.0 W/m2 SCT
09:05 1.1 °F /  -17.2 °C 0.1 °F /  -17.7 °C 1031.0 in /  34909.7 hPa Calm     93 % 0.0 in /  0 mm 63.0 W/m2 SCT
09:11 1.1 °F /  -17.2 °C 0.1 °F /  -17.7 °C 1031.0 in /  34909.7 hPa Calm     93 % 0.0 in /  0 mm 74.0 W/m2 FEW
09:16 1.1 °F /  -17.2 °C -0.1 °F /  -17.8 °C 1031.0 in /  34909.7 hPa Calm     92 % 0.0 in /  0 mm 81.0 W/m2 FEW
09:21 1.1 °F /  -17.2 °C -0.1 °F /  -17.8 °C 1031.0 in /  34909.7 hPa Calm     92 % 0.0 in /  0 mm 93.0 W/m2 FEW
09:26 1.7 °F /  -16.8 °C 0.5 °F /  -17.5 °C 1031.0 in /  34909.7 hPa Calm     92 % 0.0 in /  0 mm 100.0 W/m2 CLR
09:31 1.7 °F /  -16.8 °C 0.5 °F /  -17.5 °C 1031.0 in /  34909.7 hPa Calm     92 % 0.0 in /  0 mm 97.0 W/m2 CLR
09:36 2.2 °F /  -16.6 °C 1.1 °F /  -17.2 °C 1031.0 in /  34909.7 hPa Calm     92 % 0.0 in /  0 mm 109.0 W/m2 CLR
09:41 2.2 °F /  -16.6 °C 1.1 °F /  -17.2 °C 1031.0 in /  34909.7 hPa Calm     92 % 0.0 in /  0 mm 95.0 W/m2 CLR
09:46 2.8 °F /  -16.2 °C 1.4 °F /  -17 °C 1031.4 in /  34923.2 hPa Calm     91 % 0.0 in /  0 mm 167.0 W/m2 CLR
09:51 2.8 °F /  -16.2 °C 1.4 °F /  -17 °C 1031.0 in /  34909.7 hPa Calm     91 % 0.0 in /  0 mm 181.0 W/m2 CLR
09:56 3.3 °F /  -15.9 °C 2.0 °F /  -16.7 °C 1031.0 in /  34909.7 hPa Calm     91 % 0.0 in /  0 mm 134.0 W/m2 CLR
10:01 3.9 °F /  -15.6 °C 2.6 °F /  -16.3 °C 1031.0 in /  34909.7 hPa Calm     91 % 0.0 in /  0 mm 211.0 W/m2 CLR
10:06 3.9 °F /  -15.6 °C 2.4 °F /  -16.4 °C 1031.4 in /  34923.2 hPa Calm     90 % 0.0 in /  0 mm 223.0 W/m2 CLR
10:11 4.4 °F /  -15.3 °C 2.9 °F /  -16.2 °C 1031.4 in /  34923.2 hPa Calm     90 % 0.0 in /  0 mm 237.0 W/m2 CLR
10:16 4.4 °F /  -15.3 °C 2.6 °F /  -16.3 °C 1031.4 in /  34923.2 hPa Calm     88 % 0.0 in /  0 mm 248.0 W/m2 CLR
10:26 5.0 °F /  -15 °C 3.0 °F /  -16.1 °C 1031.0 in /  34909.7 hPa Calm     87 % 0.0 in /  0 mm 278.0 W/m2 CLR
10:31 5.6 °F /  -14.7 °C 3.4 °F /  -15.9 °C 1031.4 in /  34923.2 hPa Calm     86 % 0.0 in /  0 mm 294.0 W/m2 CLR
10:36 6.1 °F /  -14.4 °C 3.6 °F /  -15.8 °C 1031.0 in /  34909.7 hPa Calm     84 % 0.0 in /  0 mm 306.0 W/m2 CLR
10:41 6.1 °F /  -14.4 °C 3.6 °F /  -15.8 °C 1031.0 in /  34909.7 hPa Calm     84 % 0.0 in /  0 mm 316.0 W/m2 CLR
10:46 6.7 °F /  -14.1 °C 4.0 °F /  -15.6 °C 1031.0 in /  34909.7 hPa Calm     83 % 0.0 in /  0 mm 323.0 W/m2 CLR
10:51 6.7 °F /  -14.1 °C 3.8 °F /  -15.7 °C 1031.0 in /  34909.7 hPa Calm     82 % 0.0 in /  0 mm 338.0 W/m2 CLR
10:56 7.2 °F /  -13.8 °C 4.0 °F /  -15.6 °C 1031.0 in /  34909.7 hPa Calm     80 % 0.0 in /  0 mm 350.0 W/m2 CLR
11:01 7.2 °F /  -13.8 °C 4.0 °F /  -15.6 °C 1031.0 in /  34909.7 hPa Calm     80 % 0.0 in /  0 mm 360.0 W/m2 CLR
11:06 7.8 °F /  -13.4 °C 4.6 °F /  -15.2 °C 1031.0 in /  34909.7 hPa Calm     80 % 0.0 in /  0 mm 371.0 W/m2 CLR
11:11 8.3 °F /  -13.2 °C 5.1 °F /  -14.9 °C 1031.0 in /  34909.7 hPa Calm     80 % 0.0 in /  0 mm 380.0 W/m2 CLR
11:16 8.3 °F /  -13.2 °C 4.9 °F /  -15.1 °C 1031.0 in /  34909.7 hPa Calm     79 % 0.0 in /  0 mm 390.0 W/m2 CLR
11:21 8.9 °F /  -12.8 °C 5.1 °F /  -14.9 °C 1031.0 in /  34909.7 hPa Calm     77 % 0.0 in /  0 mm 399.0 W/m2 CLR
11:26 9.4 °F /  -12.6 °C 5.6 °F /  -14.7 °C 1031.0 in /  34909.7 hPa Calm     77 % 0.0 in /  0 mm 410.0 W/m2 CLR
11:31 10.0 °F /  -12.2 °C 5.8 °F /  -14.6 °C 1031.0 in /  34909.7 hPa Calm     75 % 0.0 in /  0 mm 422.0 W/m2 CLR
11:36 10.6 °F /  -11.9 °C 6.5 °F /  -14.2 °C 1031.0 in /  34909.7 hPa Calm     76 % 0.0 in /  0 mm 432.0 W/m2 CLR
11:41 10.6 °F /  -11.9 °C 6.3 °F /  -14.3 °C 1031.0 in /  34909.7 hPa Calm     75 % 0.0 in /  0 mm 448.0 W/m2 CLR
11:46 11.1 °F /  -11.6 °C 6.8 °F /  -14 °C 1030.7 in /  34899.5 hPa Calm     75 % 0.0 in /  0 mm 443.0 W/m2 CLR
11:51 11.1 °F /  -11.6 °C 6.8 °F /  -14 °C 1030.7 in /  34899.5 hPa Calm     75 % 0.0 in /  0 mm 461.0 W/m2 CLR
11:56 11.7 °F /  -11.3 °C 7.4 °F /  -13.7 °C 1030.7 in /  34899.5 hPa Calm     75 % 0.0 in /  0 mm 338.0 W/m2 CLR
12:01 11.7 °F /  -11.3 °C 7.2 °F /  -13.8 °C 1030.7 in /  34899.5 hPa ENE 5.6 mph /  9 km/h 5.6 mph /  9 km/h 74 % 0.0 in /  0 mm 475.0 W/m2 CLR
12:06 11.7 °F /  -11.3 °C 7.4 °F /  -13.7 °C 1030.4 in /  34889.3 hPa Calm     75 % 0.0 in /  0 mm 522.0 W/m2 CLR
12:11 11.7 °F /  -11.3 °C 7.2 °F /  -13.8 °C 1030.4 in /  34889.3 hPa ENE 1.9 mph /  3.1 km/h   74 % 0.0 in /  0 mm 466.0 W/m2 CLR
12:16 12.2 °F /  -11 °C 7.7 °F /  -13.5 °C 1030.4 in /  34889.3 hPa Calm     74 % 0.0 in /  0 mm 313.0 W/m2 CLR
12:21 12.2 °F /  -11 °C 7.7 °F /  -13.5 °C 1030.4 in /  34889.3 hPa ENE 3.7 mph /  6 km/h 3.7 mph /  6 km/h 74 % 0.0 in /  0 mm 244.0 W/m2 CLR
12:26 12.2 °F /  -11 °C 7.7 °F /  -13.5 °C 1030.4 in /  34889.3 hPa East 5.6 mph /  9 km/h 5.6 mph /  9 km/h 74 % 0.0 in /  0 mm 313.0 W/m2 CLR
12:31 12.2 °F /  -11 °C 7.7 °F /  -13.5 °C 1030.4 in /  34889.3 hPa ENE 3.7 mph /  6 km/h 3.7 mph /  6 km/h 74 % 0.0 in /  0 mm 362.0 W/m2 CLR
12:36 12.2 °F /  -11 °C 7.7 °F /  -13.5 °C 1030.4 in /  34889.3 hPa NE 3.7 mph /  6 km/h 3.7 mph /  6 km/h 74 % 0.0 in /  0 mm 455.0 W/m2 CLR
12:41 12.2 °F /  -11 °C 7.9 °F /  -13.4 °C 1030.4 in /  34889.3 hPa NE 3.7 mph /  6 km/h 3.7 mph /  6 km/h 75 % 0.0 in /  0 mm 415.0 W/m2 CLR
12:46 12.2 °F /  -11 °C 7.7 °F /  -13.5 °C 1030.0 in /  34875.8 hPa East 3.2 mph /  5.1 km/h 3.2 mph /  5.1 km/h 74 % 0.0 in /  0 mm 468.0 W/m2 CLR
12:51 12.8 °F /  -10.7 °C 8.1 °F /  -13.3 °C 1030.0 in /  34875.8 hPa East 3.7 mph /  6 km/h 3.7 mph /  6 km/h 73 % 0.0 in /  0 mm 404.0 W/m2 CLR
12:56 12.8 °F /  -10.7 °C 8.1 °F /  -13.3 °C 1030.0 in /  34875.8 hPa East 5.6 mph /  9 km/h 5.6 mph /  9 km/h 73 % 0.0 in /  0 mm 246.0 W/m2 CLR
13:01 12.2 °F /  -11 °C 7.5 °F /  -13.6 °C 1030.0 in /  34875.8 hPa East 5.6 mph /  9 km/h 5.6 mph /  9 km/h 73 % 0.0 in /  0 mm 250.0 W/m2 CLR
13:06 12.2 °F /  -11 °C 7.7 °F /  -13.5 °C 1030.0 in /  34875.8 hPa ENE 3.7 mph /  6 km/h 3.7 mph /  6 km/h 74 % 0.0 in /  0 mm 295.0 W/m2 CLR
13:11 12.2 °F /  -11 °C 7.5 °F /  -13.6 °C 1029.7 in /  34865.6 hPa ENE 4.8 mph /  7.7 km/h 4.8 mph /  7.7 km/h 73 % 0.0 in /  0 mm 424.0 W/m2 CLR
13:16 12.8 °F /  -10.7 °C 8.3 °F /  -13.2 °C 1029.7 in /  34865.6 hPa Calm     74 % 0.0 in /  0 mm 645.0 W/m2 CLR
13:21 13.3 °F /  -10.4 °C 8.8 °F /  -12.9 °C 1029.7 in /  34865.6 hPa East 4.8 mph /  7.7 km/h 4.8 mph /  7.7 km/h 74 % 0.0 in /  0 mm 399.0 W/m2 CLR
13:26 12.8 °F /  -10.7 °C 7.8 °F /  -13.4 °C 1029.7 in /  34865.6 hPa Calm     72 % 0.0 in /  0 mm 315.0 W/m2 CLR
13:31 13.3 °F /  -10.4 °C 8.4 °F /  -13.1 °C 1029.3 in /  34852.1 hPa ENE 1.9 mph /  3.1 km/h   72 % 0.0 in /  0 mm 323.0 W/m2 CLR
13:36 13.3 °F /  -10.4 °C 8.6 °F /  -13 °C 1029.3 in /  34852.1 hPa Calm     73 % 0.0 in /  0 mm 404.0 W/m2 CLR
13:41 13.3 °F /  -10.4 °C 8.4 °F /  -13.1 °C 1029.3 in /  34852.1 hPa ENE 1.9 mph /  3.1 km/h 1.9 mph /  3.1 km/h 72 % 0.0 in /  0 mm 290.0 W/m2 CLR
13:46 13.3 °F /  -10.4 °C 8.4 °F /  -13.1 °C 1029.0 in /  34841.9 hPa Calm     72 % 0.0 in /  0 mm 346.0 W/m2 CLR
13:51 13.3 °F /  -10.4 °C 8.4 °F /  -13.1 °C 1029.0 in /  34841.9 hPa ENE 5.6 mph /  9 km/h 5.6 mph /  9 km/h 72 % 0.0 in /  0 mm 376.0 W/m2 CLR
13:56 13.3 °F /  -10.4 °C 8.4 °F /  -13.1 °C 1029.0 in /  34841.9 hPa Calm     72 % 0.0 in /  0 mm 309.0 W/m2 CLR
14:01 13.3 °F /  -10.4 °C 8.4 °F /  -13.1 °C 1028.7 in /  34831.8 hPa Calm     72 % 0.0 in /  0 mm 485.0 W/m2 CLR
14:06 13.9 °F /  -10.1 °C 8.9 °F /  -12.8 °C 1028.7 in /  34831.8 hPa Calm     72 % 0.0 in /  0 mm 483.0 W/m2 CLR
14:11 13.9 °F /  -10.1 °C 8.7 °F /  -12.9 °C 1028.7 in /  34831.8 hPa Calm     71 % 0.0 in /  0 mm 454.0 W/m2 CLR
14:16 14.4 °F /  -9.8 °C 9.2 °F /  -12.7 °C 1028.3 in /  34818.2 hPa Calm     71 % 0.0 in /  0 mm 464.0 W/m2 CLR
14:21 15.0 °F /  -9.4 °C 9.3 °F /  -12.6 °C 1028.3 in /  34818.2 hPa Calm     69 % 0.0 in /  0 mm 464.0 W/m2 CLR
14:26 14.4 °F /  -9.8 °C 9.1 °F /  -12.7 °C 1028.3 in /  34818.2 hPa Calm     70 % 0.0 in /  0 mm 459.0 W/m2 CLR
14:31 15.0 °F /  -9.4 °C 9.3 °F /  -12.6 °C 1028.3 in /  34818.2 hPa Calm     69 % 0.0 in /  0 mm 450.0 W/m2 CLR
14:36 15.6 °F /  -9.1 °C 9.7 °F /  -12.4 °C 1028.3 in /  34818.2 hPa Calm     68 % 0.0 in /  0 mm 443.0 W/m2 CLR
14:41 15.6 °F /  -9.1 °C 9.4 °F /  -12.6 °C 1028.3 in /  34818.2 hPa Calm     67 % 0.0 in /  0 mm 434.0 W/m2 CLR
14:51 15.6 °F /  -9.1 °C 9.2 °F /  -12.7 °C 1028.0 in /  34808.1 hPa Calm     66 % 0.0 in /  0 mm 420.0 W/m2 CLR
14:56 15.6 °F /  -9.1 °C 9.2 °F /  -12.7 °C 1028.0 in /  34808.1 hPa Calm     66 % 0.0 in /  0 mm 413.0 W/m2 CLR
15:01 15.6 °F /  -9.1 °C 9.2 °F /  -12.7 °C 1028.0 in /  34808.1 hPa East 5.6 mph /  9 km/h 5.6 mph /  9 km/h 66 % 0.0 in /  0 mm 404.0 W/m2 CLR
15:06 15.6 °F /  -9.1 °C 9.2 °F /  -12.7 °C 1027.7 in /  34797.9 hPa ENE 6.4 mph /  10.3 km/h 6.4 mph /  10.3 km/h 66 % 0.0 in /  0 mm 396.0 W/m2 CLR
15:11 15.6 °F /  -9.1 °C 9.2 °F /  -12.7 °C 1027.7 in /  34797.9 hPa ENE 3.7 mph /  6 km/h 3.7 mph /  6 km/h 66 % 0.0 in /  0 mm 387.0 W/m2 CLR
15:16 15.6 °F /  -9.1 °C 9.2 °F /  -12.7 °C 1027.7 in /  34797.9 hPa NE 4.8 mph /  7.7 km/h 4.8 mph /  7.7 km/h 66 % 0.0 in /  0 mm 378.0 W/m2 CLR
15:21 15.6 °F /  -9.1 °C 9.2 °F /  -12.7 °C 1027.7 in /  34797.9 hPa East 7.4 mph /  11.9 km/h 7.4 mph /  11.9 km/h 66 % 0.0 in /  0 mm 371.0 W/m2 CLR
15:31 15.6 °F /  -9.1 °C 9.2 °F /  -12.7 °C 1027.7 in /  34797.9 hPa East 5.6 mph /  9 km/h 5.6 mph /  9 km/h 66 % 0.0 in /  0 mm 350.0 W/m2 CLR
15:36 15.6 °F /  -9.1 °C 9.2 °F /  -12.7 °C 1027.7 in /  34797.9 hPa Calm     66 % 0.0 in /  0 mm 339.0 W/m2 CLR
15:46 15.6 °F /  -9.1 °C 9.0 °F /  -12.8 °C 1027.7 in /  34797.9 hPa NE 3.7 mph /  6 km/h   65 % 0.0 in /  0 mm 320.0 W/m2 CLR
15:51 16.1 °F /  -8.8 °C 9.5 °F /  -12.5 °C 1027.3 in /  34784.4 hPa Calm     65 % 0.0 in /  0 mm 308.0 W/m2 CLR
15:56 15.6 °F /  -9.1 °C 9.0 °F /  -12.8 °C 1027.3 in /  34784.4 hPa Calm     65 % 0.0 in /  0 mm 295.0 W/m2 CLR
16:01 16.1 °F /  -8.8 °C 9.3 °F /  -12.6 °C 1027.3 in /  34784.4 hPa Calm     64 % 0.0 in /  0 mm 285.0 W/m2 CLR
16:11 16.1 °F /  -8.8 °C 9.3 °F /  -12.6 °C 1027.3 in /  34784.4 hPa Calm     64 % 0.0 in /  0 mm 258.0 W/m2 CLR
16:16 16.1 °F /  -8.8 °C 9.1 °F /  -12.7 °C 1027.3 in /  34784.4 hPa ESE 5.6 mph /  9 km/h 5.6 mph /  9 km/h 63 % 0.0 in /  0 mm 244.0 W/m2 CLR
16:21 16.1 °F /  -8.8 °C 9.1 °F /  -12.7 °C 1027.3 in /  34784.4 hPa SE 5.6 mph /  9 km/h 5.6 mph /  9 km/h 63 % 0.0 in /  0 mm 232.0 W/m2 CLR
16:26 16.1 °F /  -8.8 °C 9.1 °F /  -12.7 °C 1027.3 in /  34784.4 hPa East 5.6 mph /  9 km/h   63 % 0.0 in /  0 mm 216.0 W/m2 CLR
16:31 16.1 °F /  -8.8 °C 9.1 °F /  -12.7 °C 1027.3 in /  34784.4 hPa SE 3.7 mph /  6 km/h 3.7 mph /  6 km/h 63 % 0.0 in /  0 mm 199.0 W/m2 CLR
16:47 15.6 °F /  -9.1 °C 8.6 °F /  -13 °C 1027.3 in /  34784.4 hPa Calm     63 % 0.0 in /  0 mm 155.0 W/m2 CLR
16:57 15.6 °F /  -9.1 °C 8.6 °F /  -13 °C 1027.3 in /  34784.4 hPa East 1.9 mph /  3.1 km/h 1.9 mph /  3.1 km/h 63 % 0.0 in /  0 mm 125.0 W/m2 CLR
17:02 15.0 °F /  -9.4 °C 8.0 °F /  -13.3 °C 1027.0 in /  34774.2 hPa SE 3.7 mph /  6 km/h 3.7 mph /  6 km/h 63 % 0.0 in /  0 mm 111.0 W/m2 CLR
17:07 15.0 °F /  -9.4 °C 8.2 °F /  -13.2 °C 1027.0 in /  34774.2 hPa Calm     64 % 0.0 in /  0 mm 86.0 W/m2 CLR
17:17 14.4 °F /  -9.8 °C 7.9 °F /  -13.4 °C 1027.3 in /  34784.4 hPa East 4.8 mph /  7.7 km/h 4.8 mph /  7.7 km/h 65 % 0.0 in /  0 mm 49.0 W/m2 SCT
17:27 13.3 °F /  -10.4 °C 7.1 °F /  -13.8 °C 1027.3 in /  34784.4 hPa Calm     66 % 0.0 in /  0 mm 35.0 W/m2 BKN
17:32 12.8 °F /  -10.7 °C 6.8 °F /  -14 °C 1027.3 in /  34784.4 hPa Calm     67 % 0.0 in /  0 mm 26.0 W/m2 BKN
17:37 12.2 °F /  -11 °C 6.3 °F /  -14.3 °C 1027.3 in /  34784.4 hPa ENE 3.7 mph /  6 km/h 3.7 mph /  6 km/h 67 % 0.0 in /  0 mm 14.0 W/m2 BKN
17:42 12.2 °F /  -11 °C 6.5 °F /  -14.2 °C 1027.3 in /  34784.4 hPa ENE 1.9 mph /  3.1 km/h 1.9 mph /  3.1 km/h 68 % 0.0 in /  0 mm 12.0 W/m2 BKN
17:47 11.7 °F /  -11.3 °C 6.2 °F /  -14.3 °C 1027.3 in /  34784.4 hPa Calm     69 % 0.0 in /  0 mm 12.0 W/m2 BKN
17:52 11.7 °F /  -11.3 °C 6.4 °F /  -14.2 °C 1027.3 in /  34784.4 hPa Calm     70 % 0.0 in /  0 mm 11.0 W/m2 BKN
17:57 11.1 °F /  -11.6 °C 5.8 °F /  -14.6 °C 1027.3 in /  34784.4 hPa Calm     70 % 0.0 in /  0 mm 9.0 W/m2 BKN
18:02 11.1 °F /  -11.6 °C 6.1 °F /  -14.4 °C 1027.3 in /  34784.4 hPa Calm     71 % 0.0 in /  0 mm 5.0 W/m2 OVC
18:17 9.4 °F /  -12.6 °C 4.8 °F /  -15.1 °C 1027.3 in /  34784.4 hPa Calm     73 % 0.0 in /  0 mm 0.0 W/m2 CLR
18:22 9.4 °F /  -12.6 °C 5.1 °F /  -14.9 °C 1027.3 in /  34784.4 hPa Calm     74 % 0.0 in /  0 mm 0.0 W/m2 CLR
18:27 8.9 °F /  -12.8 °C 4.5 °F /  -15.3 °C 1027.3 in /  34784.4 hPa Calm     74 % 0.0 in /  0 mm 0.0 W/m2 CLR
18:37 8.9 °F /  -12.8 °C 4.9 °F /  -15.1 °C 1027.3 in /  34784.4 hPa Calm     76 % 0.0 in /  0 mm 0.0 W/m2 CLR
18:42 8.9 °F /  -12.8 °C 4.9 °F /  -15.1 °C 1027.3 in /  34784.4 hPa Calm     76 % 0.0 in /  0 mm 0.0 W/m2 CLR
18:47 9.4 °F /  -12.6 °C 5.2 °F /  -14.9 °C 1027.3 in /  34784.4 hPa Calm     75 % 0.0 in /  0 mm 0.0 W/m2 CLR
18:52 9.4 °F /  -12.6 °C 5.2 °F /  -14.9 °C 1027.7 in /  34797.9 hPa Calm     75 % 0.0 in /  0 mm 0.0 W/m2 CLR
18:57 9.4 °F /  -12.6 °C 5.4 °F /  -14.8 °C 1027.7 in /  34797.9 hPa Calm     76 % 0.0 in /  0 mm 0.0 W/m2 CLR
19:07 8.9 °F /  -12.8 °C 5.3 °F /  -14.8 °C 1027.7 in /  34797.9 hPa Calm     78 % 0.0 in /  0 mm 0.0 W/m2 CLR
19:12 8.9 °F /  -12.8 °C 5.6 °F /  -14.7 °C 1027.7 in /  34797.9 hPa Calm     80 % 0.0 in /  0 mm 0.0 W/m2 CLR
19:17 8.3 °F /  -13.2 °C 5.1 °F /  -14.9 °C 1027.7 in /  34797.9 hPa Calm     80 % 0.0 in /  0 mm 0.0 W/m2 CLR
19:22 7.8 °F /  -13.4 °C 4.7 °F /  -15.2 °C 1027.7 in /  34797.9 hPa Calm     81 % 0.0 in /  0 mm 0.0 W/m2 CLR
19:27 7.8 °F /  -13.4 °C 4.7 °F /  -15.2 °C 1028.0 in /  34808.1 hPa Calm     81 % 0.0 in /  0 mm 0.0 W/m2 CLR
19:37 7.2 °F /  -13.8 °C 4.7 °F /  -15.2 °C 1028.0 in /  34808.1 hPa Calm     84 % 0.0 in /  0 mm 0.0 W/m2 CLR
19:42 7.2 °F /  -13.8 °C 4.7 °F /  -15.2 °C 1028.0 in /  34808.1 hPa Calm     84 % 0.0 in /  0 mm 0.0 W/m2 CLR
19:47 7.2 °F /  -13.8 °C 4.7 °F /  -15.2 °C 1027.7 in /  34797.9 hPa Calm     84 % 0.0 in /  0 mm 0.0 W/m2 CLR
19:52 6.7 °F /  -14.1 °C 4.3 °F /  -15.4 °C 1027.7 in /  34797.9 hPa Calm     85 % 0.0 in /  0 mm 0.0 W/m2 CLR
19:57 6.7 °F /  -14.1 °C 4.3 °F /  -15.4 °C 1027.7 in /  34797.9 hPa Calm     85 % 0.0 in /  0 mm 0.0 W/m2 CLR
20:02 6.1 °F /  -14.4 °C 3.9 °F /  -15.6 °C 1027.7 in /  34797.9 hPa Calm     86 % 0.0 in /  0 mm 0.0 W/m2 CLR
20:07 6.1 °F /  -14.4 °C 3.9 °F /  -15.6 °C 1027.7 in /  34797.9 hPa Calm     86 % 0.0 in /  0 mm 0.0 W/m2 CLR
20:12 6.1 °F /  -14.4 °C 3.9 °F /  -15.6 °C 1027.7 in /  34797.9 hPa Calm     86 % 0.0 in /  0 mm 0.0 W/m2 CLR
20:17 5.6 °F /  -14.7 °C 3.6 °F /  -15.8 °C 1027.7 in /  34797.9 hPa Calm     87 % 0.0 in /  0 mm 0.0 W/m2 CLR
20:32 5.0 °F /  -15 °C 3.0 °F /  -16.1 °C 1027.7 in /  34797.9 hPa Calm     87 % 0.0 in /  0 mm 0.0 W/m2 CLR
20:37 5.0 °F /  -15 °C 3.0 °F /  -16.1 °C 1027.7 in /  34797.9 hPa Calm     87 % 0.0 in /  0 mm 0.0 W/m2 CLR
20:42 5.0 °F /  -15 °C 3.0 °F /  -16.1 °C 1027.7 in /  34797.9 hPa Calm     87 % 0.0 in /  0 mm 0.0 W/m2 CLR
20:47 5.0 °F /  -15 °C 3.0 °F /  -16.1 °C 1027.7 in /  34797.9 hPa Calm     87 % 0.0 in /  0 mm 0.0 W/m2 CLR
20:52 5.0 °F /  -15 °C 3.2 °F /  -16 °C 1027.7 in /  34797.9 hPa Calm     88 % 0.0 in /  0 mm 0.0 W/m2 CLR
21:02 5.0 °F /  -15 °C 3.2 °F /  -16 °C 1027.7 in /  34797.9 hPa Calm     88 % 0.0 in /  0 mm 0.0 W/m2 CLR
21:07 5.0 °F /  -15 °C 3.2 °F /  -16 °C 1027.7 in /  34797.9 hPa Calm     88 % 0.0 in /  0 mm 0.0 W/m2 CLR
21:12 4.4 °F /  -15.3 °C 2.6 °F /  -16.3 °C 1027.7 in /  34797.9 hPa Calm     88 % 0.0 in /  0 mm 0.0 W/m2 CLR
21:17 4.4 °F /  -15.3 °C 2.6 °F /  -16.3 °C 1027.7 in /  34797.9 hPa Calm     88 % 0.0 in /  0 mm 0.0 W/m2 CLR
21:22 3.9 °F /  -15.6 °C 2.1 °F /  -16.6 °C 1027.7 in /  34797.9 hPa Calm     88 % 0.0 in /  0 mm 0.0 W/m2 CLR
21:27 3.9 °F /  -15.6 °C 2.1 °F /  -16.6 °C 1027.7 in /  34797.9 hPa Calm     88 % 0.0 in /  0 mm 0.0 W/m2 CLR
21:32 3.9 °F /  -15.6 °C 2.2 °F /  -16.6 °C 1027.7 in /  34797.9 hPa Calm     89 % 0.0 in /  0 mm 0.0 W/m2 CLR
21:37 3.3 °F /  -15.9 °C 1.7 °F /  -16.8 °C 1027.7 in /  34797.9 hPa Calm     89 % 0.0 in /  0 mm 0.0 W/m2 CLR
21:42 3.3 °F /  -15.9 °C 1.7 °F /  -16.8 °C 1027.7 in /  34797.9 hPa Calm     89 % 0.0 in /  0 mm 0.0 W/m2 CLR
21:47 3.3 °F /  -15.9 °C 1.7 °F /  -16.8 °C 1027.7 in /  34797.9 hPa Calm     89 % 0.0 in /  0 mm 0.0 W/m2 CLR
21:52 3.9 °F /  -15.6 °C 2.2 °F /  -16.6 °C 1027.7 in /  34797.9 hPa Calm     89 % 0.0 in /  0 mm 0.0 W/m2 CLR
21:57 3.9 °F /  -15.6 °C 2.2 °F /  -16.6 °C 1027.7 in /  34797.9 hPa Calm     89 % 0.0 in /  0 mm 0.0 W/m2 CLR
22:02 3.9 °F /  -15.6 °C 2.4 °F /  -16.4 °C 1027.7 in /  34797.9 hPa Calm     90 % 0.0 in /  0 mm 0.0 W/m2 CLR
22:08 3.9 °F /  -15.6 °C 2.4 °F /  -16.4 °C 1027.3 in /  34784.4 hPa Calm     90 % 0.0 in /  0 mm 0.0 W/m2 CLR
22:13 3.9 °F /  -15.6 °C 2.2 °F /  -16.6 °C 1027.7 in /  34797.9 hPa Calm     89 % 0.0 in /  0 mm 0.0 W/m2 CLR
22:18 3.9 °F /  -15.6 °C 2.2 °F /  -16.6 °C 1027.7 in /  34797.9 hPa Calm     89 % 0.0 in /  0 mm 0.0 W/m2 CLR
22:23 3.3 °F /  -15.9 °C 1.8 °F /  -16.8 °C 1027.7 in /  34797.9 hPa Calm     90 % 0.0 in /  0 mm 0.0 W/m2 CLR
22:28 3.3 °F /  -15.9 °C 1.8 °F /  -16.8 °C 1027.7 in /  34797.9 hPa Calm     90 % 0.0 in /  0 mm 0.0 W/m2 CLR
22:33 3.3 °F /  -15.9 °C 1.8 °F /  -16.8 °C 1027.7 in /  34797.9 hPa Calm     90 % 0.0 in /  0 mm 0.0 W/m2 CLR
22:38 3.3 °F /  -15.9 °C 1.8 °F /  -16.8 °C 1027.7 in /  34797.9 hPa Calm     90 % 0.0 in /  0 mm 0.0 W/m2 CLR
22:43 3.9 °F /  -15.6 °C 2.4 °F /  -16.4 °C 1027.7 in /  34797.9 hPa Calm     90 % 0.0 in /  0 mm 0.0 W/m2 CLR
22:48 3.9 °F /  -15.6 °C 2.4 °F /  -16.4 °C 1027.7 in /  34797.9 hPa Calm     90 % 0.0 in /  0 mm 0.0 W/m2 CLR
22:53 3.3 °F /  -15.9 °C 1.8 °F /  -16.8 °C 1027.7 in /  34797.9 hPa Calm     90 % 0.0 in /  0 mm 0.0 W/m2 CLR
22:58 3.3 °F /  -15.9 °C 1.8 °F /  -16.8 °C 1027.7 in /  34797.9 hPa Calm     90 % 0.0 in /  0 mm 0.0 W/m2 CLR
23:03 3.3 °F /  -15.9 °C 1.8 °F /  -16.8 °C 1027.7 in /  34797.9 hPa Calm     90 % 0.0 in /  0 mm 0.0 W/m2 CLR
23:08 2.8 °F /  -16.2 °C 1.3 °F /  -17.1 °C 1027.3 in /  34784.4 hPa Calm     90 % 0.0 in /  0 mm 0.0 W/m2 CLR
23:13 2.8 °F /  -16.2 °C 1.3 °F /  -17.1 °C 1027.7 in /  34797.9 hPa Calm     90 % 0.0 in /  0 mm 0.0 W/m2 CLR
23:18 2.8 °F /  -16.2 °C 1.3 °F /  -17.1 °C 1027.7 in /  34797.9 hPa Calm     90 % 0.3 in /  7.62 mm 0.0 W/m2 RA
23:23 2.8 °F /  -16.2 °C 1.4 °F /  -17 °C 1027.7 in /  34797.9 hPa Calm     91 % 0.3 in /  7.62 mm 0.0 W/m2 CLR
23:28 2.8 °F /  -16.2 °C 1.4 °F /  -17 °C 1027.7 in /  34797.9 hPa Calm     91 % 0.3 in /  7.62 mm 0.0 W/m2 CLR
23:33 2.2 °F /  -16.6 °C 0.9 °F /  -17.3 °C 1027.7 in /  34797.9 hPa Calm     91 % 0.3 in /  7.62 mm 0.0 W/m2 CLR
23:38 2.2 °F /  -16.6 °C 0.9 °F /  -17.3 °C 1027.7 in /  34797.9 hPa Calm     91 % 0.3 in /  7.62 mm 0.0 W/m2 CLR
23:43 2.2 °F /  -16.6 °C 0.9 °F /  -17.3 °C 1027.7 in /  34797.9 hPa Calm     91 % 0.3 in /  7.62 mm 0.0 W/m2 CLR
23:48 1.7 °F /  -16.8 °C 0.3 °F /  -17.6 °C 1027.7 in /  34797.9 hPa Calm     91 % 0.3 in /  7.62 mm 0.0 W/m2 CLR
23:53 1.7 °F /  -16.8 °C 0.3 °F /  -17.6 °C 1027.7 in /  34797.9 hPa Calm     91 % 0.3 in /  7.62 mm 0.0 W/m2 CLR
23:58 1.7 °F /  -16.8 °C 0.3 °F /  -17.6 °C 1027.7 in /  34797.9 hPa Calm     91 % 0.3 in /  7.62 mm 0.0 W/m2 CLR
Lo Temps de Massalio
Compliments of Weather Underground - 1 mb